Time;durP1;ratioP1;P1;durP2;ratioP2;P2;SDS_P1;SDS_P2;PMS_P1;PMS_P2;Temp;Humidity;BMP_temperature;BMP_pressure;BME280_temperature;BME280_humidity;BME280_pressure;Samples;Min_cycle;Max_cycle;Signal;HPM_P1;HPM_P2
2021/12/16 00:06:55;;;;;;;31.50;16.30;;;3.50;99.90;;;;;;5134232;27;20043;-74
2021/12/16 00:09:14;;;;;;;25.80;15.70;;;3.40;99.90;;;;;;5133885;27;20407;-74
2021/12/16 00:34:16;;;;;;;25.70;14.88;;;3.40;99.90;;;;;;5031052;28;20052;-74
2021/12/16 00:36:45;;;;;;;28.15;16.50;;;3.40;99.90;;;;;;5086790;28;20046;-74
2021/12/16 00:39:23;;;;;;;27.25;16.95;;;3.40;99.90;;;;;;5112888;28;20575;-74
2021/12/16 00:41:57;;;;;;;27.10;16.45;;;3.40;99.90;;;;;;5116586;27;20035;-74
2021/12/16 00:47:32;;;;;;;28.52;16.77;;;3.30;99.90;;;;;;5134625;27;20039;-74
2021/12/16 00:50:18;;;;;;;27.95;16.67;;;3.30;99.90;;;;;;5133425;27;20075;-74
2021/12/16 00:58:15;;;;;;;25.80;15.30;;;3.30;99.90;;;;;;5133194;27;20133;-73
2021/12/16 01:00:56;;;;;;;25.75;16.05;;;3.30;99.90;;;;;;5133456;27;20573;-74
2021/12/16 01:35:10;;;;;;;23.27;14.40;;;3.10;99.90;;;;;;5149660;27;20050;-74
2021/12/16 01:51:52;;;;;;;21.23;13.63;;;3.00;99.90;;;;;;5132046;27;20088;-74
2021/12/16 01:54:37;;;;;;;21.95;14.27;;;3.00;99.90;;;;;;5131070;27;20099;-74
2021/12/16 01:57:20;;;;;;;22.50;14.32;;;3.00;99.90;;;;;;5132050;27;20043;-74
2021/12/16 02:00:06;;;;;;;23.25;14.63;;;3.00;99.90;;;;;;5110858;28;20500;-74
2021/12/16 02:02:48;;;;;;;24.65;15.68;;;3.00;99.90;;;;;;5110713;28;20035;-74
2021/12/16 02:08:23;;;;;;;21.90;14.18;;;3.00;99.90;;;;;;5102602;28;20547;-74
2021/12/16 02:34:19;;;;;;;23.13;13.88;;;2.90;99.90;;;;;;5132304;27;20047;-74
2021/12/16 02:36:47;;;;;;;23.88;14.82;;;2.90;99.90;;;;;;5130844;27;20050;-74
2021/12/16 02:39:24;;;;;;;22.50;14.07;;;2.90;99.90;;;;;;5131001;27;20050;-74
2021/12/16 02:42:07;;;;;;;24.42;15.38;;;2.90;99.90;;;;;;5115367;27;20039;-73
2021/12/16 02:48:29;;;;;;;26.90;15.65;;;2.90;99.90;;;;;;5115408;27;20071;-74
2021/12/16 02:50:30;;;;;;;25.48;15.25;;;2.90;99.90;;;;;;5130805;27;20058;-74
2021/12/16 02:52:57;;;;;;;25.77;16.20;;;2.90;99.90;;;;;;5130509;27;20054;-75
2021/12/16 02:55:29;;;;;;;29.65;17.05;;;2.90;99.90;;;;;;5130965;27;20047;-74
2021/12/16 02:58:03;;;;;;;25.45;15.80;;;2.90;99.90;;;;;;5130996;27;20040;-74
2021/12/16 03:00:41;;;;;;;26.33;15.52;;;2.90;99.90;;;;;;5130935;27;20096;-74
2021/12/16 03:03:09;;;;;;;25.27;15.07;;;2.90;99.90;;;;;;5130115;27;20085;-74
2021/12/16 03:05:42;;;;;;;24.55;14.57;;;2.90;99.90;;;;;;5130928;28;20046;-74
2021/12/16 03:08:12;;;;;;;22.40;13.35;;;3.00;99.90;;;;;;5130800;28;20134;-73
2021/12/16 03:11:17;;;;;;;22.88;14.27;;;2.90;99.90;;;;;;5114926;28;20050;-74
2021/12/16 03:14:06;;;;;;;24.75;14.35;;;2.90;99.90;;;;;;5132701;28;20039;-73
2021/12/16 03:19:27;;;;;;;24.23;14.40;;;2.90;99.90;;;;;;5110306;28;20039;-74
2021/12/16 03:22:02;;;;;;;22.00;13.73;;;3.00;99.90;;;;;;5110242;28;20066;-74
2021/12/16 03:36:14;;;;;;;22.60;13.63;;;2.90;99.90;;;;;;5151948;27;20039;-74
2021/12/16 03:38:46;;;;;;;22.23;14.32;;;2.80;99.90;;;;;;5118642;27;20039;-74
2021/12/16 03:41:18;;;;;;;23.67;14.18;;;2.80;99.90;;;;;;5134472;27;20043;-74
2021/12/16 03:43:47;;;;;;;23.88;14.45;;;2.90;99.90;;;;;;5133709;27;20453;-74
2021/12/16 03:46:25;;;;;;;25.70;15.00;;;2.90;99.90;;;;;;5135790;27;20039;-74
2021/12/16 03:49:11;;;;;;;25.08;15.60;;;2.80;99.90;;;;;;5117439;27;20050;-74
2021/12/16 03:51:46;;;;;;;22.45;14.52;;;2.80;99.90;;;;;;5134456;27;20067;-74
2021/12/16 03:54:23;;;;;;;20.45;13.35;;;2.90;99.90;;;;;;5116995;27;20054;-74
2021/12/16 03:57:06;;;;;;;23.27;14.30;;;2.80;99.90;;;;;;5118671;27;20126;-74
2021/12/16 03:59:38;;;;;;;22.52;14.85;;;2.80;99.90;;;;;;5134330;27;20043;-74
2021/12/16 04:02:33;;;;;;;19.30;12.30;;;2.80;99.90;;;;;;5114813;27;20040;-74
2021/12/16 04:05:03;;;;;;;20.92;13.50;;;2.80;99.90;;;;;;5113641;28;20126;-74
2021/12/16 04:07:35;;;;;;;18.83;13.20;;;2.80;99.90;;;;;;5113615;28;20040;-75
2021/12/16 04:10:33;;;;;;;21.90;13.02;;;2.80;99.90;;;;;;5127316;27;20048;-74
2021/12/16 04:13:13;;;;;;;18.67;13.68;;;2.90;99.90;;;;;;5118005;27;20096;-74
2021/12/16 04:15:50;;;;;;;20.10;12.65;;;2.90;99.90;;;;;;5133937;27;20057;-74
2021/12/16 04:18:19;;;;;;;19.65;12.95;;;2.90;99.90;;;;;;5116854;27;20035;-74
2021/12/16 04:20:51;;;;;;;18.52;13.20;;;2.90;99.90;;;;;;5133144;27;20107;-74
2021/12/16 04:23:20;;;;;;;22.05;14.55;;;2.90;99.90;;;;;;5116465;27;20058;-74
2021/12/16 04:25:48;;;;;;;19.73;12.27;;;2.90;99.90;;;;;;5116467;27;20039;-74
2021/12/16 04:28:23;;;;;;;17.58;11.85;;;2.90;99.90;;;;;;5116514;27;20134;-74
2021/12/16 04:30:52;;;;;;;18.17;12.00;;;2.90;99.90;;;;;;5133104;27;20039;-74
2021/12/16 04:33:23;;;;;;;17.20;11.30;;;2.90;99.90;;;;;;5116367;27;20051;-74
2021/12/16 04:35:57;;;;;;;19.33;11.40;;;2.90;99.90;;;;;;5117217;27;20039;-74
2021/12/16 04:38:25;;;;;;;18.67;11.55;;;2.90;99.90;;;;;;5116478;27;20084;-74
2021/12/16 04:40:54;;;;;;;17.95;12.00;;;2.90;99.90;;;;;;5133931;27;20051;-74
2021/12/16 04:43:23;;;;;;;19.27;12.23;;;2.90;99.90;;;;;;5132849;27;20042;-74
2021/12/16 04:46:03;;;;;;;21.23;13.35;;;2.90;99.90;;;;;;5133243;27;20522;-75
2021/12/16 04:48:37;;;;;;;19.88;12.27;;;2.90;99.90;;;;;;5117336;27;20041;-74
2021/12/16 04:51:10;;;;;;;;;;;2.90;99.90;;;;;;5133421;27;20471;-74
2021/12/16 04:53:40;;;;;;;19.38;11.90;;;2.90;99.90;;;;;;5115559;27;19926;-74
2021/12/16 04:56:09;;;;;;;22.02;13.45;;;2.90;99.90;;;;;;5132683;27;20047;-74
2021/12/16 04:58:51;;;;;;;20.73;13.40;;;2.90;99.90;;;;;;5134611;27;20081;-74
2021/12/16 05:01:19;;;;;;;23.17;13.70;;;2.90;99.90;;;;;;5132931;27;20126;-75
2021/12/16 05:03:46;;;;;;;19.00;11.95;;;2.90;99.90;;;;;;5115491;27;20491;-74
2021/12/16 05:06:14;;;;;;;19.75;12.70;;;2.90;99.90;;;;;;5132894;27;20039;-75
2021/12/16 05:08:45;;;;;;;19.23;12.32;;;2.90;99.90;;;;;;5112238;28;20097;-74
2021/12/16 05:11:30;;;;;;;21.90;12.77;;;2.80;99.90;;;;;;5108454;27;20384;-74
2021/12/16 05:14:05;;;;;;;20.60;11.80;;;2.80;99.90;;;;;;5121987;27;20039;-75
2021/12/16 05:16:33;;;;;;;19.02;11.43;;;2.80;99.90;;;;;;5112020;27;20061;-75
2021/12/16 05:19:00;;;;;;;18.95;11.85;;;2.80;99.90;;;;;;5110668;28;20101;-75
2021/12/16 05:21:43;;;;;;;17.42;10.73;;;2.80;99.90;;;;;;5112156;27;20042;-74
2021/12/16 05:24:26;;;;;;;15.05;9.95;;;2.80;99.90;;;;;;5115743;28;20040;-74
2021/12/16 05:27:09;;;;;;;17.00;10.30;;;2.80;99.90;;;;;;5105137;27;20039;-74
2021/12/16 05:29:38;;;;;;;13.85;9.38;;;2.80;99.90;;;;;;5114389;27;20043;-75
2021/12/16 05:32:06;;;;;;;18.88;10.98;;;2.80;99.90;;;;;;5113841;27;20540;-75
2021/12/16 05:34:33;;;;;;;16.00;9.98;;;2.80;99.90;;;;;;5114425;27;20047;-74
2021/12/16 05:37:04;;;;;;;15.98;10.18;;;2.80;99.90;;;;;;5131547;27;20456;-74
2021/12/16 05:39:40;;;;;;;15.43;9.65;;;2.80;99.90;;;;;;5115769;27;20130;-74
2021/12/16 05:42:44;;;;;;;16.35;9.95;;;2.70;99.90;;;;;;5106743;27;20035;-75
2021/12/16 05:45:12;;;;;;;14.60;8.98;;;2.80;99.90;;;;;;5114966;27;20039;-74
2021/12/16 05:47:44;;;;;;;13.45;8.65;;;2.70;99.90;;;;;;5104182;28;20043;-74
2021/12/16 05:50:11;;;;;;;16.42;8.82;;;2.70;99.90;;;;;;5110956;28;20047;-74
2021/12/16 05:52:39;;;;;;;16.23;8.70;;;2.70;99.90;;;;;;5126017;27;20403;-74
2021/12/16 05:55:09;;;;;;;18.30;10.18;;;2.70;99.90;;;;;;5114415;27;20051;-74
2021/12/16 05:58:02;;;;;;;14.75;8.23;;;2.70;99.90;;;;;;5125892;27;20559;-74
2021/12/16 06:00:39;;;;;;;14.75;9.23;;;2.70;99.90;;;;;;5112298;27;20039;-74
2021/12/16 06:03:11;;;;;;;14.35;9.10;;;2.70;99.90;;;;;;5112893;27;20037;-74
2021/12/16 06:05:44;;;;;;;17.17;9.15;;;2.70;99.90;;;;;;5108755;27;20587;-74
2021/12/16 06:08:11;;;;;;;15.00;9.45;;;2.70;99.90;;;;;;5131347;27;20039;-74
2021/12/16 06:13:17;;;;;;;15.43;10.20;;;2.80;99.90;;;;;;5114379;27;20130;-73
2021/12/16 06:27:05;;;;;;;17.58;10.20;;;2.80;99.90;;;;;;5116044;27;20434;-74
2021/12/16 06:29:37;;;;;;;19.05;10.13;;;2.80;99.90;;;;;;5127255;27;20510;-74
2021/12/16 06:32:05;;;;;;;20.38;11.68;;;2.80;99.90;;;;;;5131185;27;20118;-74
2021/12/16 06:34:37;;;;;;;19.48;11.32;;;2.80;99.90;;;;;;5129973;27;20043;-75
2021/12/16 06:37:09;;;;;;;17.80;10.40;;;2.70;99.90;;;;;;5131393;27;20035;-74
2021/12/16 06:39:41;;;;;;;22.52;11.65;;;2.70;99.90;;;;;;5129428;27;20054;-74
2021/12/16 06:42:28;;;;;;;16.48;10.00;;;2.70;99.90;;;;;;5115036;27;20127;-74
2021/12/16 06:45:06;;;;;;;18.42;11.15;;;2.70;99.90;;;;;;5112924;27;20077;-74
2021/12/16 06:47:52;;;;;;;17.38;10.20;;;2.70;99.90;;;;;;5113401;27;20318;-74
2021/12/16 06:50:39;;;;;;;21.30;11.68;;;2.70;99.90;;;;;;5129115;27;20518;-74
2021/12/16 06:53:08;;;;;;;27.23;16.55;;;2.70;99.90;;;;;;5146524;27;20502;-74
2021/12/16 06:55:43;;;;;;;23.90;14.25;;;2.60;99.90;;;;;;5129455;27;20043;-74
2021/12/16 06:58:25;;;;;;;18.38;11.18;;;2.60;99.90;;;;;;5110744;27;20452;-74
2021/12/16 07:01:10;;;;;;;19.88;10.75;;;2.60;99.90;;;;;;5124974;27;20074;-74
2021/12/16 07:03:47;;;;;;;22.10;12.98;;;2.60;99.90;;;;;;5122962;28;20031;-74
2021/12/16 07:06:20;;;;;;;21.20;13.10;;;2.60;99.90;;;;;;5119312;28;20092;-75
2021/12/16 07:08:49;;;;;;;22.67;14.60;;;2.60;99.90;;;;;;5129423;28;20039;-74
2021/12/16 07:11:16;;;;;;;18.27;11.88;;;2.60;99.90;;;;;;5101025;28;20067;-74
2021/12/16 07:13:57;;;;;;;18.38;10.48;;;2.50;99.90;;;;;;5124848;28;20040;-74
2021/12/16 07:16:26;;;;;;;16.00;9.48;;;2.50;99.90;;;;;;5103726;28;20055;-75
2021/12/16 07:18:59;;;;;;;15.02;9.90;;;2.60;99.90;;;;;;5096739;28;20406;-74
2021/12/16 07:21:26;;;;;;;18.95;11.60;;;2.60;99.90;;;;;;5097674;28;20092;-74
2021/12/16 07:24:00;;;;;;;13.82;8.65;;;2.60;99.90;;;;;;5131025;28;20469;-74
2021/12/16 07:26:28;;;;;;;13.73;8.60;;;2.50;99.90;;;;;;5114087;28;20448;-74
2021/12/16 07:29:01;;;;;;;15.98;8.38;;;2.50;99.90;;;;;;5130827;28;20043;-74
2021/12/16 07:31:33;;;;;;;15.00;8.07;;;2.50;99.90;;;;;;5110446;28;20044;-74
2021/12/16 07:34:09;;;;;;;17.65;10.18;;;2.50;99.90;;;;;;5117854;28;20046;-73
2021/12/16 07:36:43;;;;;;;18.65;10.27;;;2.50;99.90;;;;;;5132075;27;20054;-74
2021/12/16 07:39:19;;;;;;;21.15;11.30;;;2.50;99.90;;;;;;5128946;27;20118;-74
2021/12/16 07:41:51;;;;;;;21.50;10.77;;;2.50;99.90;;;;;;5136740;27;20042;-74
2021/12/16 07:44:18;;;;;;;19.27;10.80;;;2.50;99.90;;;;;;5148421;27;20039;-74
2021/12/16 07:46:56;;;;;;;17.65;9.35;;;2.40;99.90;;;;;;5139499;27;20075;-74
2021/12/16 07:49:32;;;;;;;16.83;8.90;;;2.40;99.90;;;;;;5100544;28;20127;-75
2021/12/16 07:52:03;;;;;;;17.63;9.48;;;2.40;99.90;;;;;;5112599;28;20467;-74
2021/12/16 07:54:30;;;;;;;16.30;8.85;;;2.50;99.90;;;;;;5125837;27;20682;-74
2021/12/16 07:57:01;;;;;;;21.30;9.73;;;2.50;99.90;;;;;;5134202;27;20095;-74
2021/12/16 07:59:30;;;;;;;15.05;8.30;;;2.50;99.90;;;;;;5145980;27;20055;-74
2021/12/16 08:01:57;;;;;;;14.77;8.52;;;2.60;99.90;;;;;;5129204;28;20388;-74
2021/12/16 08:04:30;;;;;;;14.55;8.25;;;2.60;99.90;;;;;;5108618;28;20048;-74
2021/12/16 08:07:04;;;;;;;14.35;9.40;;;2.60;99.90;;;;;;5090923;28;20042;-74
2021/12/16 08:09:35;;;;;;;13.38;8.27;;;2.60;99.90;;;;;;5109312;28;20400;-73
2021/12/16 08:12:04;;;;;;;14.32;8.05;;;2.60;99.90;;;;;;5111194;28;20036;-74
2021/12/16 08:14:32;;;;;;;14.63;9.02;;;2.70;99.90;;;;;;5126440;28;20072;-73
2021/12/16 08:16:59;;;;;;;14.27;8.27;;;2.70;99.90;;;;;;5112510;28;20442;-74
2021/12/16 08:19:27;;;;;;;12.13;7.00;;;2.80;99.90;;;;;;5119170;27;20053;-74
2021/12/16 08:21:54;;;;;;;11.88;7.82;;;2.80;99.90;;;;;;5120842;27;20092;-74
2021/12/16 08:24:27;;;;;;;13.02;8.18;;;2.80;99.90;;;;;;5112485;28;20046;-73
2021/12/16 08:26:54;;;;;;;13.18;7.60;;;2.80;99.90;;;;;;5096893;28;20039;-74
2021/12/16 08:29:29;;;;;;;15.35;8.52;;;2.90;99.90;;;;;;5096966;28;20072;-73
2021/12/16 08:31:56;;;;;;;12.65;8.27;;;2.90;99.90;;;;;;5129036;27;20051;-74
2021/12/16 08:34:31;;;;;;;12.18;7.35;;;3.00;99.90;;;;;;5134536;27;20073;-74
2021/12/16 08:37:04;;;;;;;11.05;6.80;;;3.00;99.90;;;;;;5133994;27;20197;-73
2021/12/16 08:39:35;;;;;;;17.25;9.52;;;3.00;99.90;;;;;;5116876;27;20047;-73
2021/12/16 08:42:09;;;;;;;14.07;8.93;;;3.10;99.90;;;;;;5134773;27;20039;-74
2021/12/16 08:44:41;;;;;;;;;;;3.10;99.90;;;;;;5117103;27;20043;-73
2021/12/16 08:47:15;;;;;;;13.63;8.07;;;3.10;99.90;;;;;;5115790;27;20024;-74
2021/12/16 08:49:48;;;;;;;13.15;8.80;;;3.10;99.90;;;;;;5133777;27;20043;-74
2021/12/16 08:52:18;;;;;;;14.77;8.20;;;3.20;99.90;;;;;;5133188;27;20082;-73
2021/12/16 08:54:52;;;;;;;11.93;7.57;;;3.20;99.90;;;;;;5127706;27;20050;-73
2021/12/16 08:57:19;;;;;;;13.43;7.90;;;3.20;99.90;;;;;;5134405;27;20043;-74
2021/12/16 08:59:48;;;;;;;14.07;8.38;;;3.20;99.90;;;;;;5134036;27;20043;-74
2021/12/16 09:02:19;;;;;;;13.98;8.90;;;3.20;99.90;;;;;;5126099;27;20169;-74
2021/12/16 09:04:51;;;;;;;15.15;8.60;;;3.20;99.90;;;;;;5115813;27;20071;-74
2021/12/16 09:07:19;;;;;;;14.38;8.73;;;3.20;99.90;;;;;;5111871;27;20115;-74
2021/12/16 09:09:52;;;;;;;13.63;7.50;;;3.20;99.90;;;;;;5129058;27;20070;-74
2021/12/16 09:12:48;;;;;;;15.10;8.63;;;3.10;99.90;;;;;;5121539;27;20473;-73
2021/12/16 09:15:17;;;;;;;14.57;8.05;;;3.10;99.90;;;;;;5114469;28;20086;-73
2021/12/16 09:17:52;;;;;;;19.42;11.77;;;3.10;99.90;;;;;;5111699;28;20559;-74
2021/12/16 09:20:24;;;;;;;15.23;8.95;;;3.10;99.90;;;;;;5097540;27;20045;-74
2021/12/16 09:22:52;;;;;;;16.55;9.85;;;3.10;99.90;;;;;;5114657;27;20125;-74
2021/12/16 09:25:24;;;;;;;18.25;9.23;;;3.10;99.90;;;;;;5115327;27;20466;-74
2021/12/16 09:27:57;;;;;;;15.98;9.88;;;3.10;99.90;;;;;;5111775;27;20042;-74
2021/12/16 09:30:27;;;;;;;16.13;9.05;;;3.20;99.90;;;;;;5108438;27;20040;-74
2021/12/16 09:33:01;;;;;;;20.00;10.57;;;3.20;99.90;;;;;;5131218;27;20046;-74
2021/12/16 09:35:35;;;;;;;19.52;10.23;;;3.30;99.90;;;;;;5120345;27;20407;-74
2021/12/16 09:38:04;;;;;;;17.95;10.43;;;3.30;99.90;;;;;;5112099;28;20062;-74
2021/12/16 09:40:35;;;;;;;19.75;11.23;;;3.30;99.90;;;;;;5094811;28;20039;-74
2021/12/16 09:43:03;;;;;;;23.15;12.07;;;3.30;99.90;;;;;;5094629;28;20399;-74
2021/12/16 09:45:30;;;;;;;22.75;15.00;;;3.40;99.90;;;;;;5115014;27;20039;-74
2021/12/16 09:47:59;;;;;;;26.42;17.27;;;3.40;99.90;;;;;;5131874;27;20043;-74
2021/12/16 09:50:31;;;;;;;30.70;20.17;;;3.40;99.90;;;;;;5123822;27;20046;-73
2021/12/16 09:53:05;;;;;;;20.75;11.75;;;3.50;99.90;;;;;;5110790;28;20602;-74
2021/12/16 09:55:34;;;;;;;17.90;10.20;;;3.50;99.90;;;;;;5111466;27;20138;-74
2021/12/16 09:58:03;;;;;;;16.42;9.82;;;3.60;99.90;;;;;;5136133;27;20439;-74
2021/12/16 10:00:33;;;;;;;16.45;9.50;;;3.60;99.90;;;;;;5123673;27;20035;-74
2021/12/16 10:03:03;;;;;;;15.63;8.77;;;3.60;99.90;;;;;;5130920;27;20384;-74
2021/12/16 10:05:36;;;;;;;20.83;10.15;;;3.60;99.90;;;;;;5120047;27;20376;-74
2021/12/16 10:08:05;;;;;;;17.60;10.77;;;3.70;99.90;;;;;;5123037;27;20111;-74
2021/12/16 10:10:32;;;;;;;18.23;10.82;;;3.70;99.90;;;;;;5131308;27;20096;-73
2021/12/16 10:13:05;;;;;;;18.48;11.15;;;3.70;99.90;;;;;;5130959;27;20042;-73
2021/12/16 10:18:19;;;;;;;15.57;9.10;;;3.70;99.90;;;;;;5128640;27;19965;-74
2021/12/16 10:21:00;;;;;;;17.50;10.40;;;3.70;99.90;;;;;;5113592;27;20039;-73
2021/12/16 10:23:34;;;;;;;19.77;10.20;;;3.70;99.90;;;;;;5129852;27;20548;-74
2021/12/16 10:26:19;;;;;;;18.42;11.40;;;3.70;99.90;;;;;;5114059;27;20071;-74
2021/12/16 10:28:56;;;;;;;19.85;11.48;;;3.70;99.90;;;;;;5114035;27;20047;-74
2021/12/16 10:31:37;;;;;;;14.75;9.48;;;3.70;99.90;;;;;;5109504;28;20054;-74
2021/12/16 10:34:10;;;;;;;16.42;9.55;;;3.80;99.90;;;;;;5109078;28;20488;-74
2021/12/16 10:36:41;;;;;;;19.60;12.48;;;3.80;99.90;;;;;;5109697;27;20071;-73
2021/12/16 10:39:11;;;;;;;22.40;12.90;;;3.80;99.90;;;;;;5104873;27;20115;-74
2021/12/16 10:41:59;;;;;;;21.13;11.95;;;3.80;99.90;;;;;;5117856;27;20490;-73
2021/12/16 10:44:29;;;;;;;17.83;11.07;;;3.80;99.90;;;;;;5141999;27;20070;-73
2021/12/16 10:47:10;;;;;;;21.95;12.55;;;3.70;99.90;;;;;;5121144;27;20119;-73
2021/12/16 10:49:38;;;;;;;21.45;13.55;;;3.70;99.90;;;;;;5123038;27;20554;-73
2021/12/16 10:52:13;;;;;;;22.20;11.95;;;3.70;99.90;;;;;;5129662;27;20043;-74
2021/12/16 10:54:43;;;;;;;18.02;11.35;;;3.70;99.90;;;;;;5127284;27;20559;-73
2021/12/16 10:57:15;;;;;;;21.05;13.27;;;3.60;99.90;;;;;;5106751;27;20157;-73
2021/12/16 10:59:48;;;;;;;19.10;11.68;;;3.60;99.90;;;;;;5123420;27;20035;-73
2021/12/16 11:02:21;;;;;;;17.90;11.05;;;3.60;99.90;;;;;;5130316;27;20042;-73
2021/12/16 11:05:21;;;;;;;14.95;9.90;;;3.70;99.90;;;;;;5139614;27;20070;-73
2021/12/16 11:07:58;;;;;;;21.42;13.50;;;3.60;99.90;;;;;;5152775;27;20038;-73
2021/12/16 11:10:36;;;;;;;18.98;11.05;;;3.70;99.90;;;;;;5132263;27;20082;-73
2021/12/16 11:13:09;;;;;;;17.20;10.00;;;3.70;99.90;;;;;;5109134;28;20603;-74
2021/12/16 11:15:44;;;;;;;19.85;13.05;;;3.80;99.90;;;;;;5120760;28;20043;-73
2021/12/16 11:18:16;;;;;;;22.05;13.40;;;3.80;99.90;;;;;;5130233;28;20497;-73
2021/12/16 11:21:02;;;;;;;19.50;10.90;;;3.80;99.90;;;;;;5116881;28;20063;-74
2021/12/16 11:23:38;;;;;;;19.65;12.20;;;3.80;99.90;;;;;;5120224;27;20126;-73
2021/12/16 11:26:13;;;;;;;18.58;11.27;;;3.80;99.90;;;;;;5104280;28;20491;-72
2021/12/16 11:28:46;;;;;;;18.17;9.82;;;3.80;99.90;;;;;;5130737;28;20039;-72
2021/12/16 11:31:15;;;;;;;95.65;35.13;;;3.80;99.90;;;;;;5130072;28;20065;-73
2021/12/16 11:33:43;;;;;;;22.58;13.43;;;3.80;99.90;;;;;;5129135;28;20047;-73
2021/12/16 11:36:17;;;;;;;21.15;12.15;;;3.80;99.90;;;;;;5122782;27;20126;-74
2021/12/16 11:39:01;;;;;;;31.10;15.45;;;3.80;99.90;;;;;;5129934;28;20402;-74
2021/12/16 11:41:41;;;;;;;49.83;37.50;;;3.80;99.90;;;;;;5129461;28;20126;-74
2021/12/16 11:44:45;;;;;;;22.30;12.32;;;3.90;99.90;;;;;;5130523;28;20046;-73
2021/12/16 11:47:22;;;;;;;19.30;10.45;;;3.90;99.90;;;;;;5117799;28;20086;-73
2021/12/16 11:50:01;;;;;;;18.25;10.38;;;3.90;99.90;;;;;;5108459;28;20130;-73
2021/12/16 11:52:37;;;;;;;18.45;10.68;;;3.90;99.90;;;;;;5130590;27;20130;-73
2021/12/16 11:55:08;;;;;;;18.15;10.63;;;3.90;99.90;;;;;;5125433;27;20126;-73
2021/12/16 11:57:51;;;;;;;17.25;10.95;;;3.80;99.90;;;;;;5139683;27;20045;-73
2021/12/16 12:00:24;;;;;;;18.15;11.13;;;3.80;99.90;;;;;;5122957;27;20510;-73
2021/12/16 12:02:52;;;;;;;18.13;10.82;;;3.80;99.90;;;;;;5117873;27;20099;-73
2021/12/16 12:05:32;;;;;;;18.80;11.20;;;3.80;99.90;;;;;;5119707;27;20729;-73
2021/12/16 12:08:07;;;;;;;19.48;10.75;;;3.70;99.90;;;;;;5117701;27;20091;-73
2021/12/16 12:10:41;;;;;;;17.70;10.75;;;3.80;99.90;;;;;;5116961;27;20142;-73
2021/12/16 12:13:21;;;;;;;17.33;9.32;;;3.80;99.90;;;;;;5130932;27;20074;-73
2021/12/16 12:16:07;;;;;;;24.67;10.98;;;3.70;99.90;;;;;;5118198;27;20468;-73
2021/12/16 12:18:49;;;;;;;17.38;10.27;;;3.80;99.90;;;;;;5133606;27;20511;-74
2021/12/16 12:21:31;;;;;;;16.48;10.18;;;3.80;99.90;;;;;;5135350;27;20070;-73
2021/12/16 12:24:08;;;;;;;19.58;10.10;;;3.90;99.90;;;;;;5133831;27;20109;-73
2021/12/16 12:26:55;;;;;;;17.67;10.75;;;3.90;99.90;;;;;;5133612;27;20092;-74
2021/12/16 12:30:02;;;;;;;16.08;10.15;;;3.80;99.90;;;;;;5131282;27;20125;-73
2021/12/16 12:32:39;;;;;;;18.80;10.10;;;3.90;99.90;;;;;;5137490;27;20110;-73
2021/12/16 12:35:19;;;;;;;16.52;10.02;;;3.90;99.90;;;;;;5121998;27;20043;-73
2021/12/16 12:37:53;;;;;;;21.85;11.88;;;3.90;99.90;;;;;;5126532;27;20071;-74
2021/12/16 12:40:36;;;;;;;18.92;11.10;;;3.90;99.90;;;;;;5130602;27;20042;-73
2021/12/16 12:43:05;;;;;;;17.88;11.00;;;3.90;99.90;;;;;;5145290;27;20039;-73
2021/12/16 12:45:36;;;;;;;19.05;10.77;;;3.90;99.90;;;;;;5128787;27;20035;-73
2021/12/16 12:48:17;;;;;;;18.85;11.80;;;3.90;99.90;;;;;;5119643;27;20039;-73
2021/12/16 12:50:50;;;;;;;19.67;11.13;;;3.80;99.90;;;;;;5111313;27;20131;-73
2021/12/16 12:53:25;;;;;;;19.23;10.57;;;3.90;99.90;;;;;;5111505;27;20044;-73
2021/12/16 12:56:12;;;;;;;19.38;11.07;;;3.90;99.90;;;;;;5129453;27;20138;-73
2021/12/16 12:58:54;;;;;;;18.42;11.10;;;3.90;99.90;;;;;;5129205;27;20035;-72
2021/12/16 13:01:54;;;;;;;18.48;10.90;;;3.90;99.90;;;;;;5113546;27;20080;-73
2021/12/16 13:04:33;;;;;;;19.67;10.98;;;3.90;99.90;;;;;;5133830;27;20043;-73
2021/12/16 13:07:11;;;;;;;20.13;11.13;;;3.90;99.90;;;;;;5131955;27;20522;-73
2021/12/16 13:09:55;;;;;;;21.92;13.05;;;3.90;99.90;;;;;;5127600;27;20044;-73
2021/12/16 13:12:34;;;;;;;32.15;18.70;;;3.90;99.90;;;;;;5111885;27;20225;-73
2021/12/16 13:15:47;;;;;;;22.73;12.90;;;3.90;99.90;;;;;;5102678;27;20130;-74
2021/12/16 13:24:37;;;;;;;16.67;10.38;;;4.00;99.90;;;;;;5112581;27;20047;-74
2021/12/16 13:30:05;;;;;;;21.73;12.65;;;4.00;99.90;;;;;;5131569;27;20122;-74
2021/12/16 13:32:54;;;;;;;22.10;11.85;;;4.00;99.90;;;;;;5124527;27;20123;-73
2021/12/16 13:35:35;;;;;;;19.98;11.18;;;4.00;99.90;;;;;;5132540;27;20035;-73
2021/12/16 13:38:08;;;;;;;22.48;11.30;;;4.00;99.90;;;;;;5132550;27;20035;-73
2021/12/16 13:40:40;;;;;;;21.65;12.02;;;4.00;99.90;;;;;;5131036;27;20065;-73
2021/12/16 13:43:26;;;;;;;19.50;10.98;;;4.00;99.90;;;;;;5129569;27;20035;-73
2021/12/16 13:46:30;;;;;;;21.05;11.70;;;4.00;99.90;;;;;;5130036;27;20039;-73
2021/12/16 14:03:47;;;;;;;15.68;10.25;;;4.00;99.90;;;;;;5126650;27;20134;-73
2021/12/16 14:06:20;;;;;;;19.40;10.25;;;4.00;99.90;;;;;;5138774;27;20039;-73
2021/12/16 14:08:53;;;;;;;20.35;10.45;;;4.00;99.90;;;;;;5118378;27;20488;-73
2021/12/16 14:12:41;;;;;;;;;;;4.00;99.90;;;;;;5099270;27;20031;-73
2021/12/16 14:17:42;;;;;;;19.27;10.88;;;4.00;99.90;;;;;;5116282;27;20039;-74
2021/12/16 14:23:29;;;;;;;20.55;10.50;;;4.00;99.90;;;;;;5133887;27;20130;-73
2021/12/16 14:26:17;;;;;;;17.10;10.52;;;4.00;99.90;;;;;;5104935;28;20067;-74
2021/12/16 14:32:36;;;;;;;19.48;10.88;;;4.00;99.90;;;;;;5129614;27;20035;-73
2021/12/16 14:37:21;;;;;;;27.85;13.02;;;4.00;99.90;;;;;;5127885;27;20047;-73
2021/12/16 14:43:00;;;;;;;19.15;11.07;;;4.00;99.90;;;;;;5110221;27;20058;-73
2021/12/16 14:48:20;;;;;;;15.18;9.15;;;4.00;99.90;;;;;;5132002;27;20039;-74
2021/12/16 14:51:09;;;;;;;17.85;10.05;;;4.10;99.90;;;;;;5129790;27;20079;-73
2021/12/16 14:53:48;;;;;;;18.65;10.00;;;4.00;99.90;;;;;;5093328;28;20039;-73
2021/12/16 14:56:20;;;;;;;19.15;10.88;;;4.00;99.90;;;;;;5110320;28;20057;-73
2021/12/16 14:58:55;;;;;;;22.00;11.63;;;4.00;99.90;;;;;;5110429;28;20067;-74
2021/12/16 15:01:35;;;;;;;30.45;20.75;;;4.00;99.90;;;;;;5110140;28;20495;-74
2021/12/16 15:04:04;;;;;;;29.45;20.95;;;4.00;99.90;;;;;;5098904;27;20074;-74
2021/12/16 15:06:45;;;;;;;;;;;4.00;99.90;;;;;;5124409;27;20053;-74
2021/12/16 15:09:27;;;;;;;22.35;14.32;;;4.00;99.90;;;;;;5112252;28;19919;-74
2021/12/16 15:12:37;;;;;;;21.13;13.20;;;4.00;99.90;;;;;;5113517;28;20604;-74
2021/12/16 15:15:21;;;;;;;21.48;13.05;;;4.00;99.90;;;;;;5127005;28;20035;-72
2021/12/16 15:33:57;;;;;;;27.08;13.02;;;3.90;99.90;;;;;;5132410;27;20047;-74
2021/12/16 15:40:55;;;;;;;25.70;13.05;;;3.80;99.90;;;;;;5134699;27;20039;-74
2021/12/16 15:43:31;;;;;;;22.10;12.23;;;3.90;99.90;;;;;;5113970;27;20039;-73
2021/12/16 15:46:05;;;;;;;23.30;12.57;;;3.90;99.90;;;;;;5099625;27;20043;-74
2021/12/16 15:48:37;;;;;;;25.70;14.52;;;3.90;99.90;;;;;;5138290;27;20396;-73
2021/12/16 15:51:10;;;;;;;22.20;12.60;;;3.90;99.90;;;;;;5114578;28;20120;-74
2021/12/16 15:53:47;;;;;;;21.13;12.38;;;3.80;99.90;;;;;;5101815;27;20039;-74
2021/12/16 15:56:25;;;;;;;20.50;11.07;;;3.80;99.90;;;;;;5125604;27;20051;-74
2021/12/16 15:58:56;;;;;;;22.02;11.35;;;3.80;99.90;;;;;;5146250;27;20068;-74
2021/12/16 16:01:29;;;;;;;21.05;11.73;;;4.00;99.90;;;;;;5125204;27;20401;-74
2021/12/16 16:03:57;;;;;;;20.08;10.85;;;4.00;99.90;;;;;;5110760;27;20473;-74
2021/12/16 16:06:24;;;;;;;19.90;11.20;;;4.00;99.90;;;;;;5101734;27;20075;-74
2021/12/16 16:09:00;;;;;;;21.25;12.05;;;4.00;99.90;;;;;;5129816;27;20189;-73
2021/12/16 16:11:34;;;;;;;21.25;12.52;;;4.00;99.90;;;;;;5132051;27;20546;-75
2021/12/16 16:14:06;;;;;;;24.13;13.93;;;4.20;99.90;;;;;;5132109;27;20047;-76
2021/12/16 16:16:46;;;;;;;29.40;17.15;;;4.20;99.90;;;;;;5111210;28;20040;-74
2021/12/16 16:19:18;;;;;;;34.15;18.90;;;4.10;99.90;;;;;;5112940;28;20126;-73
2021/12/16 16:21:54;;;;;;;25.85;15.90;;;4.10;99.90;;;;;;5111974;28;20462;-73
2021/12/16 16:24:32;;;;;;;22.23;13.90;;;4.00;99.90;;;;;;5131247;27;20039;-74
2021/12/16 16:27:05;;;;;;;26.17;13.95;;;4.00;99.90;;;;;;5125257;27;20044;-74
2021/12/16 16:29:40;;;;;;;26.05;13.18;;;3.90;99.90;;;;;;5126708;27;20484;-74
2021/12/16 16:32:07;;;;;;;24.95;13.55;;;3.90;99.90;;;;;;5121884;27;20108;-74
2021/12/16 16:34:44;;;;;;;27.70;14.30;;;3.90;99.90;;;;;;5127649;27;20135;-74
2021/12/16 16:37:33;;;;;;;25.08;13.73;;;3.80;99.90;;;;;;5119656;27;20119;-74
2021/12/16 16:40:06;;;;;;;28.55;13.60;;;3.80;99.90;;;;;;5106753;27;20045;-73
2021/12/16 16:42:37;;;;;;;24.92;12.98;;;3.80;99.90;;;;;;5125949;27;20059;-74
2021/12/16 16:45:08;;;;;;;28.17;13.35;;;3.80;99.90;;;;;;5116169;27;20032;-74
2021/12/16 16:47:46;;;;;;;22.13;13.02;;;3.70;99.90;;;;;;5128136;27;20039;-74